ADDS METAR Data INFO
IDs: Format: Raw Decoded Include TAF

Data at: 2320 UTC 15 Jul 2018

KCVC 152315Z AUTO 12003KT 10SM BKN026 BKN038 29/23 A3002 RMK AO2
KCVC 152255Z AUTO 00000KT 10SM SCT026 SCT030 31/23 A3002 RMK AO2
KCVC 152235Z AUTO 09003KT 10SM CLR 31/23 A3002 RMK AO2 LTG DSNT W
KCVC 152215Z AUTO 13003KT 7SM CLR 31/23 A3002 RMK AO2
KCVC 152156Z AUTO 12004KT 10SM CLR 32/23 A3002 RMK AO2 LTG DSNT S
KCVC 152135Z AUTO 13003KT 7SM CLR 31/23 A3002 RMK AO2
KCVC 152117Z AUTO 11003KT 7SM CLR 31/23 A3002 RMK AO2
KCVC 152055Z AUTO 11004KT 10SM SCT021 SCT029 SCT039 31/23 A3002 RMK AO2
KCVC 152035Z AUTO 12004KT 7SM SCT021 BKN026 OVC035 29/24 A3003 RMK AO2
KCVC 152015Z AUTO 10003KT 10SM BKN023 BKN033 OVC044 31/24 A3003 RMK AO2
KCVC 151956Z AUTO 07008KT 7SM BKN028 BKN035 BKN043 31/23 A3003 RMK AO2 LTG DSNT SE
KCVC 151936Z AUTO 07005KT 7SM SCT028 SCT035 33/23 A3004 RMK AO2 LTG DSNT SE
KCVC 151916Z AUTO 03004KT 7SM BKN026 32/23 A3005 RMK AO2
KCVC 151856Z AUTO 00000KT 10SM SCT120 31/23 A3006 RMK AO2
KCVC 151817Z AUTO 00000KT 10SM SCT021 SCT027 BKN031 29/23 A3007 RMK AO2 LTG DSNT SE
KCVC 151755Z AUTO 28004KT 7SM BKN022 BKN044 28/23 A3009 RMK AO2 LTG DSNT SE
KCVC 151715Z AUTO 00000KT 10SM SCT013 BKN046 30/23 A3010 RMK AO2
KCVC 151657Z AUTO 07004KT 7SM SCT015 SCT022 BKN046 29/24 A3010 RMK AO2
KCVC 151637Z AUTO 08005KT 7SM SCT015 OVC044 29/24 A3010 RMK AO2
KCVC 151615Z AUTO 08003KT 7SM SCT015 SCT020 OVC040 28/23 A3011 RMK AO2
KCVC 151556Z AUTO 00000KT 7SM BKN015 OVC020 27/23 A3011 RMK AO2
KCVC 151537Z AUTO 09004KT 7SM SCT010 OVC015 27/23 A3011 RMK AO2
KCVC 151515Z AUTO 00000KT 7SM BKN010 OVC022 27/24 A3010 RMK AO2
KCVC 151455Z AUTO 07003KT 7SM SCT008 OVC022 27/23 A3011 RMK AO2
KCVC 151435Z AUTO 09003KT 7SM BKN008 BKN018 OVC026 27/23 A3010 RMK AO2
KCVC 151415Z AUTO 00000KT 7SM SCT006 OVC026 27/24 A3010 RMK AO2
KCVC 151355Z AUTO 00000KT 5SM SCT006 SCT019 OVC026 26/24 A3011 RMK AO2 LTG DSNT NW
KCVC 151335Z AUTO 00000KT 4SM SCT006 BKN017 OVC024 25/24 A3011 RMK AO2
KCVC 151315Z AUTO 00000KT 2 1/2SM BKN004 OVC016 25/23 A3011 RMK AO2
KCVC 151257Z AUTO 00000KT 2SM OVC004 24/23 A3011 RMK AO2
KCVC 151235Z AUTO 00000KT 2 1/2SM OVC004 24/23 A3011 RMK AO2
KCVC 151135Z AUTO 00000KT 4SM OVC004 24/23 A3010 RMK AO2
KCVC 151115Z AUTO 00000KT 5SM OVC004 24/23 A3009 RMK AO2
KCVC 151055Z AUTO 00000KT 7SM OVC004 24/23 A3009 RMK AO2
KCVC 150955Z AUTO 00000KT 4SM OVC004 24/23 A3008 RMK AO2
KCVC 150935Z AUTO 00000KT 4SM OVC004 24/23 A3008 RMK AO2
KCVC 150915Z AUTO 00000KT 4SM OVC004 24/23 A3008 RMK AO2
KCVC 150857Z AUTO 00000KT 4SM OVC004 24/23 A3008 RMK AO2
KCVC 150837Z AUTO 00000KT 3SM BKN004 24/23 A3008 RMK AO2
KCVC 150817Z AUTO 00000KT 5SM CLR 24/23 A3008 RMK AO2
KCVC 150755Z AUTO 00000KT 3SM CLR 24/23 A3008 RMK AO2
KCVC 150737Z AUTO 00000KT 4SM CLR 24/23 A3008 RMK AO2
KCVC 150715Z AUTO 00000KT 4SM CLR 24/23 A3008 RMK AO2
KCVC 150655Z AUTO 05004KT 4SM CLR 24/23 A3007 RMK AO2
KCVC 150635Z AUTO 00000KT 4SM CLR 24/23 A3007 RMK AO2
KCVC 150615Z AUTO 05003KT 5SM CLR 24/23 A3008 RMK AO2
KCVC 150555Z AUTO 00000KT 4SM CLR 24/23 A3008 RMK AO2
KCVC 150536Z AUTO 00000KT 3SM CLR 24/23 A3009 RMK AO2
KCVC 150515Z AUTO 00000KT 2 1/2SM SCT002 24/23 A3009 RMK AO2
KCVC 150457Z AUTO 00000KT 4SM SCT003 24/23 A3009 RMK AO2
KCVC 150435Z AUTO 00000KT 5SM SCT003 BKN032 BKN040 24/23 A3010 RMK AO2
KCVC 150415Z AUTO 00000KT 4SM SCT040 24/23 A3010 RMK AO2
KCVC 150356Z AUTO 00000KT 4SM CLR 24/23 A3009 RMK AO2
KCVC 150336Z AUTO 00000KT 3SM SCT055 24/23 A3011 RMK AO2
KCVC 150317Z AUTO 00000KT 4SM SCT055 24/23 A3012 RMK AO2
KCVC 150257Z AUTO 00000KT 5SM CLR 25/23 A3012 RMK AO2
KCVC 150235Z AUTO 00000KT 7SM CLR 25/24 A3012 RMK AO2
KCVC 150156Z AUTO 00000KT 5SM SCT047 25/23 A3012 RMK AO2
KCVC 150115Z AUTO 00000KT 7SM CLR 25/23 A3011 RMK AO2
KCVC 150055Z AUTO 00000KT 7SM CLR 25/23 A3010 RMK AO2 LTG DSNT S AND W
KCVC 150035Z AUTO 00000KT 7SM CLR 26/24 A3010 RMK AO2
KCVC 150015Z AUTO 00000KT 10SM CLR 26/23 A3009 RMK AO2 LTG DSNT S THRU W
KCVC 142357Z AUTO 00000KT 10SM VCTS CLR 26/23 A3009 RMK AO2 LTG DSNT S AND W
KCVC 142335Z AUTO 00000KT 7SM SCT090 SCT120 26/23 A3008 RMK AO2 LTG DSNT S
KCVC 142315Z AUTO 00000KT 10SM BKN090 26/24 A3009 RMK AO2 LTG DSNT SW
KCVC 142257Z AUTO 05004KT 10SM SCT090 OVC110 26/23 A3009 RMK AO2 LTG DSNT W
KCVC 142237Z AUTO 09003KT 10SM VCTS OVC120 26/23 A3009 RMK AO2 LTG DSNT SW THRU NW
KCVC 142215Z AUTO 00000KT 7SM SCT040 SCT049 OVC110 26/24 A3008 RMK AO2 LTG DSNT S THRU NW
KCVC 142135Z AUTO 08007KT 10SM VCTS SCT005 SCT060 OVC100 26/24 A3010 RMK AO2 LTG DSNT SE AND W
KCVC 142117Z AUTO 07007KT 7SM VCTS SCT006 BKN055 OVC100 26/24 A3011 RMK AO2 LTG DSNT SE S AND NW
KCVC 142035Z AUTO 07006KT 7SM SCT012 BKN040 OVC055 26/24 A3010 RMK AO2 LTG DSNT SE AND SW
KCVC 141956Z AUTO 06010G14KT 7SM SCT017 BKN027 OVC036 27/23 A3011 RMK AO2
KCVC 141935Z AUTO 07012KT 10SM SCT019 BKN029 OVC110 29/23 A3011 RMK AO2
KCVC 141915Z AUTO 03003KT 10SM SCT033 SCT042 BKN110 32/22 A3010 RMK AO2
KCVC 141855Z AUTO 07005KT 10SM SCT025 SCT036 OVC110 32/23 A3011 RMK AO2
KCVC 141815Z AUTO 00000KT 10SM BKN025 BKN041 OVC050 30/23 A3012 RMK AO2
KCVC 141755Z AUTO 00000KT 10SM SCT029 BKN041 BKN050 31/23 A3013 RMK AO2
KCVC 141738Z AUTO 06003KT 10SM SCT031 BKN060 BKN080 31/23 A3013 RMK AO2
KCVC 141715Z AUTO 05003KT 7SM SCT020 SCT025 OVC050 29/23 A3015 RMK AO2
KCVC 141655Z AUTO 00000KT 7SM BKN020 OVC025 29/23 A3015 RMK AO2
KCVC 141635Z AUTO 04004KT 10SM SCT018 BKN025 BKN033 29/23 A3016 RMK AO2
KCVC 141615Z AUTO 02006KT 7SM BKN018 BKN025 OVC032 29/24 A3015 RMK AO2
KCVC 141555Z AUTO 36005KT 10SM OVC018 29/23 A3016 RMK AO2
KCVC 141535Z AUTO 00000KT 7SM 28/23 A3016 RMK AO2
KCVC 141515Z AUTO 06003KT 7SM OVC016 28/23 A3016 RMK AO2
KCVC 141455Z AUTO 00000KT 7SM OVC014 28/23 A3016 RMK AO2
KCVC 141435Z AUTO 07005KT 7SM OVC012 27/23 A3016 RMK AO2
KCVC 141417Z AUTO 06005KT 7SM OVC010 27/23 A3017 RMK AO2
KCVC 141355Z AUTO 07003KT 7SM OVC010 26/23 A3017 RMK AO2
KCVC 141335Z AUTO 05004KT 7SM OVC010 26/23 A3017 RMK AO2
KCVC 141315Z AUTO 06004KT 7SM OVC010 26/23 A3015 RMK AO2
KCVC 141235Z AUTO 08003KT 5SM OVC010 26/23 A3015 RMK AO2
KCVC 141215Z AUTO 07003KT 5SM OVC008 25/23 A3014 RMK AO2
KCVC 141156Z AUTO 00000KT 7SM OVC008 25/23 A3014 RMK AO2
KCVC 141135Z AUTO 00000KT 5SM OVC006 25/23 A3013 RMK AO2 LTG DSNT SE